This is the latest recevied weather packets stored in our database for station/object DJ6OI-23. If no packets are shown the sender has not sent any weather packets the latest 10 day(s).
| Time | Temp. | Humidity | Pressure | Rain* | Wind** | Luminosity | Snow |
|---|---|---|---|---|---|---|---|
| 1777310826 | 17.22° C | 36% | 1000.5 hPa | 0 mm | - | - | - |
| 1777309891 | 18.89° C | 32% | 1000.5 hPa | 0 mm | - | - | - |
| 1777308956 | 22.78° C | 27% | 1000.6 hPa | 0 mm | - | - | - |
| 1777308021 | 21.67° C | 27% | 1000.4 hPa | 0 mm | - | - | - |
| 1777307086 | 22.78° C | 25% | 1000.5 hPa | 0 mm | - | - | - |
| 1777306151 | 23.89° C | 24% | 1000.6 hPa | 0 mm | - | - | - |
| 1777305216 | 23.89° C | 24% | 1000.6 hPa | 0 mm | - | - | - |
| 1777304281 | 22.78° C | 24% | 1000.6 hPa | 0 mm | - | - | - |
| 1777303347 | 21.11° C | 27% | 1000.7 hPa | 0 mm | - | - | - |
| 1777302412 | 20.56° C | 27% | 1000.8 hPa | 0 mm | - | - | - |
| 1777301477 | 18.89° C | 28% | 1000.8 hPa | 0 mm | - | - | - |
| 1777300542 | 18.89° C | 28% | 1001 hPa | 0 mm | - | - | - |
| 1777299607 | 18.89° C | 28% | 1001.2 hPa | 0 mm | - | - | - |
| 1777298672 | 19.44° C | 29% | 1001.4 hPa | 0 mm | - | - | - |
| 1777297737 | 20.56° C | 28% | 1001.6 hPa | 0 mm | - | - | - |
| 1777296802 | 21.11° C | 28% | 1001.8 hPa | 0 mm | - | - | - |
| 1777295867 | 20.56° C | 29% | 1001.9 hPa | 0 mm | - | - | - |
| 1777294932 | 20.56° C | 30% | 1002.1 hPa | 0 mm | - | - | - |
| 1777293997 | 21.11° C | 30% | 1002.2 hPa | 0 mm | - | - | - |
| 1777293062 | 21.67° C | 29% | 1002.3 hPa | 0 mm | - | - | - |
| 1777292128 | 22.22° C | 29% | 1002.3 hPa | 0 mm | - | - | - |
| 1777291193 | 22.22° C | 29% | 1002.4 hPa | 0 mm | - | - | - |
| 1777290258 | 22.22° C | 29% | 1002.5 hPa | 0 mm | - | - | - |
| 1777289323 | 21.67° C | 29% | 1002.6 hPa | 0 mm | - | - | - |
| 1777288388 | 21.11° C | 31% | 1002.7 hPa | 0 mm | - | - | - |
* Rain latest hour (hover to see other rain measurements)
** Current wind speed in m/s (hover to see current wind gust speed)